CheckWX is a tool to help pilots better visualize weather data.  It is not intended as a substitute for an official pre-flight weather briefing.

19:49:31 UTC

KMXF TAF
Maxwell AFB Airport
Montgomery, Alabama, USA
TAF AMD KMXF 281305Z 2813/2918 00000KT 0400 FG FEW000 QNH2998INS BECMG 2813/2814 VRB03KT 6000 BR SCT005 QNH2999INS BECMG 2814/2815 VRB03KT 9999 NSW FEW030 QNH3000INS BECMG 2900/2901 00000KT 9999 BKN250 QNH3002INS BECMG 2912/2913 09004KT 9999 SCT030 BKN140 OVC250 QNH2998INS TX16/2821Z TN01/2813Z

Jan-28@
13:00 UTC

Jan-28 @ 13:00 UTC

Jan-29@
18:00 UTC

Jan-29 @ 18:00 UTC

TAF AMD KMXF 281305Z 2813/2918 00000KT 0400 FG FEW000 QNH2998INS
Conditions
Fog
Cloud Levels
  • Few

Jan-28@
13:00 UTC

Jan-28 @ 13:00 UTC

Jan-28@
14:00 UTC

Jan-28 @ 14:00 UTC

BECMG 2813/2814 VRB03KT 6000 BR SCT005 QNH2999INS

Expired

Wind
  • Variable at 3 KTS
Conditions
Mist
Cloud Levels
  • Scattered at 500' AGL

Jan-28@
14:00 UTC

Jan-28 @ 14:00 UTC

Jan-29@
00:00 UTC

Jan-29 @ 00:00 UTC

BECMG 2814/2815 VRB03KT 9999 NSW FEW030 QNH3000INS

Becoming

Becoming Conditions expected by Tue, Jan 28, 2020 @ 15:00 UTC

Wind
  • Variable at 3 KTS
Conditions
No significant weather
Cloud Levels
  • Few at 3,000' AGL

Jan-29@
00:00 UTC

Jan-29 @ 00:00 UTC

Jan-29@
12:00 UTC

Jan-29 @ 12:00 UTC

BECMG 2900/2901 00000KT 9999 BKN250 QNH3002INS

Becoming

Becoming Conditions expected by Wed, Jan 29, 2020 @ 01:00 UTC

Conditions
No significant weather
Cloud Levels
  • Broken at 25,000' AGL

Jan-29@
12:00 UTC

Jan-29 @ 12:00 UTC

Jan-29@
18:00 UTC

Jan-29 @ 18:00 UTC

BECMG 2912/2913 09004KT 9999 SCT030 BKN140 OVC250 QNH2998INS TX16/2821Z TN01/2813Z

Becoming

Becoming Conditions expected by Wed, Jan 29, 2020 @ 13:00 UTC

Wind
  • 090° at 4 KTS
Conditions
No significant weather
Cloud Levels
  • Scattered at 3,000' AGL
  • Broken at 14,000' AGL
  • Overcast at 25,000' AGL